This is the latest recevied weather packets stored in our database for station/object SQ5LTL-2. If no packets are shown the sender has not sent any weather packets the latest 10 day(s).
| Time | Temp. | Humidity | Pressure | Rain* | Wind** | Luminosity | Snow |
|---|---|---|---|---|---|---|---|
| 1778041827 | 16.67° C | 51% | 1007.6 hPa | 0 mm | - | 58 W/m² | - |
| 1778041526 | 16.11° C | 53% | 1007.6 hPa | 0 mm | - | 54 W/m² | - |
| 1778041224 | 15.56° C | 55% | 1007.6 hPa | 0 mm | - | 49 W/m² | - |
| 1778040923 | 15° C | 56% | 1007.7 hPa | 0 mm | - | 46 W/m² | - |
| 1778040621 | 14.44° C | 56% | 1007.8 hPa | 0 mm | - | 42 W/m² | - |
| 1778040320 | 13.89° C | 57% | 1007.7 hPa | 0 mm | - | 38 W/m² | - |
| 1778040018 | 13.89° C | 58% | 1007.7 hPa | 0 mm | - | 34 W/m² | - |
| 1778039717 | 12.78° C | 61% | 1007.7 hPa | 0 mm | - | 31 W/m² | - |
| 1778039436 | 11.67° C | 67% | 1007.7 hPa | 0 mm | - | 26 W/m² | - |
| 1778039134 | 10.56° C | 72% | 1007.7 hPa | 0 mm | - | 24 W/m² | - |
| 1778038832 | 10.56° C | 72% | 1007.5 hPa | 0 mm | - | 21 W/m² | - |
| 1778038531 | 11.11° C | 71% | 1007.6 hPa | 0 mm | - | 16 W/m² | - |
| 1778038231 | 10.56° C | 72% | 1007.4 hPa | 0 mm | - | 14 W/m² | - |
| 1778037928 | 10.56° C | 71% | 1007.5 hPa | 0 mm | - | 12 W/m² | - |
| 1778037627 | 11.11° C | 71% | 1007.5 hPa | 0 mm | - | 10 W/m² | - |
| 1778037325 | 11.11° C | 70% | 1007.6 hPa | 0 mm | - | 8 W/m² | - |
| 1778037024 | 11.67° C | 68% | 1007.4 hPa | 0 mm | - | 6 W/m² | - |
| 1778036722 | 12.22° C | 66% | 1007.5 hPa | 0 mm | - | 4 W/m² | - |
| 1778036422 | 12.22° C | 65% | 1007.5 hPa | 0 mm | - | 3 W/m² | - |
| 1778036120 | 12.22° C | 64% | 1007.5 hPa | 0 mm | - | 2 W/m² | - |
| 1778035818 | 12.78° C | 63% | 1007.6 hPa | 0 mm | - | 1 W/m² | - |
| 1778035518 | 12.78° C | 62% | 1007.6 hPa | 0 mm | - | 1 W/m² | - |
| 1778035237 | 12.78° C | 63% | 1007.5 hPa | 0 mm | - | 0 W/m² | - |
| 1778034934 | 12.78° C | 62% | 1007.6 hPa | 0 mm | - | 0 W/m² | - |
| 1778034633 | 12.78° C | 62% | 1007.6 hPa | 0 mm | - | 0 W/m² | - |
* Rain latest hour (hover to see other rain measurements)
** Current wind speed in m/s (hover to see current wind gust speed)